sensor_id;sensor_type;location;lat;lon;timestamp;temperature;humidity
23568;DHT22;11962;50.838;4.430;2022-08-21T00:05:04;18.00;99.90
23568;DHT22;11962;50.838;4.430;2022-08-21T00:07:30;18.00;99.90
23568;DHT22;11962;50.838;4.430;2022-08-21T00:09:55;17.90;99.90
23568;DHT22;11962;50.838;4.430;2022-08-21T00:15:09;17.90;99.90
23568;DHT22;11962;50.838;4.430;2022-08-21T00:20:38;17.80;99.90
23568;DHT22;11962;50.838;4.430;2022-08-21T00:23:04;17.80;99.90
23568;DHT22;11962;50.838;4.430;2022-08-21T00:25:30;17.80;99.90
23568;DHT22;11962;50.838;4.430;2022-08-21T00:27:56;17.70;99.90
23568;DHT22;11962;50.838;4.430;2022-08-21T00:30:22;17.70;99.90
23568;DHT22;11962;50.838;4.430;2022-08-21T00:35:39;17.70;99.90
23568;DHT22;11962;50.838;4.430;2022-08-21T00:38:05;17.70;99.90
23568;DHT22;11962;50.838;4.430;2022-08-21T00:40:35;17.70;99.90
23568;DHT22;11962;50.838;4.430;2022-08-21T00:43:02;17.70;99.90
23568;DHT22;11962;50.838;4.430;2022-08-21T00:45:28;17.60;99.90
23568;DHT22;11962;50.838;4.430;2022-08-21T00:47:58;17.60;99.90
23568;DHT22;11962;50.838;4.430;2022-08-21T00:50:26;17.60;99.90
23568;DHT22;11962;50.838;4.430;2022-08-21T00:52:53;17.60;99.90
23568;DHT22;11962;50.838;4.430;2022-08-21T00:55:20;17.50;99.90
23568;DHT22;11962;50.838;4.430;2022-08-21T00:58:03;17.60;99.90
23568;DHT22;11962;50.838;4.430;2022-08-21T01:00:32;17.50;99.90
23568;DHT22;11962;50.838;4.430;2022-08-21T01:03:09;17.50;99.90
23568;DHT22;11962;50.838;4.430;2022-08-21T01:05:35;17.50;99.90
23568;DHT22;11962;50.838;4.430;2022-08-21T01:08:01;17.50;99.90
23568;DHT22;11962;50.838;4.430;2022-08-21T01:10:27;17.40;99.90
23568;DHT22;11962;50.838;4.430;2022-08-21T01:12:53;17.40;99.90
23568;DHT22;11962;50.838;4.430;2022-08-21T01:15:20;17.40;99.90
23568;DHT22;11962;50.838;4.430;2022-08-21T01:17:52;17.40;99.90
23568;DHT22;11962;50.838;4.430;2022-08-21T01:20:18;17.40;99.90
23568;DHT22;11962;50.838;4.430;2022-08-21T01:22:44;17.30;99.90
23568;DHT22;11962;50.838;4.430;2022-08-21T01:25:10;17.30;99.90
23568;DHT22;11962;50.838;4.430;2022-08-21T01:27:36;17.30;99.90
23568;DHT22;11962;50.838;4.430;2022-08-21T01:30:13;17.30;99.90
23568;DHT22;11962;50.838;4.430;2022-08-21T01:32:41;17.30;99.90
23568;DHT22;11962;50.838;4.430;2022-08-21T01:35:07;17.20;99.90
23568;DHT22;11962;50.838;4.430;2022-08-21T01:37:33;17.20;99.90
23568;DHT22;11962;50.838;4.430;2022-08-21T01:39:59;17.20;99.90
23568;DHT22;11962;50.838;4.430;2022-08-21T01:42:25;17.10;99.90
23568;DHT22;11962;50.838;4.430;2022-08-21T01:44:50;17.10;99.90
23568;DHT22;11962;50.838;4.430;2022-08-21T01:47:16;17.10;99.90
23568;DHT22;11962;50.838;4.430;2022-08-21T01:49:52;17.10;99.90
23568;DHT22;11962;50.838;4.430;2022-08-21T01:52:18;17.10;99.90
23568;DHT22;11962;50.838;4.430;2022-08-21T01:54:44;17.00;99.90
23568;DHT22;11962;50.838;4.430;2022-08-21T01:57:10;17.00;99.90
23568;DHT22;11962;50.838;4.430;2022-08-21T01:59:36;17.00;99.90
23568;DHT22;11962;50.838;4.430;2022-08-21T02:02:02;17.00;99.90
23568;DHT22;11962;50.838;4.430;2022-08-21T02:04:37;16.90;99.90
23568;DHT22;11962;50.838;4.430;2022-08-21T02:07:03;16.90;99.90
23568;DHT22;11962;50.838;4.430;2022-08-21T02:09:28;16.90;99.90
23568;DHT22;11962;50.838;4.430;2022-08-21T02:11:54;16.90;99.90
23568;DHT22;11962;50.838;4.430;2022-08-21T02:14:20;16.90;99.90
23568;DHT22;11962;50.838;4.430;2022-08-21T02:16:45;16.90;99.90
23568;DHT22;11962;50.838;4.430;2022-08-21T02:19:11;16.90;99.90
23568;DHT22;11962;50.838;4.430;2022-08-21T02:21:38;16.90;99.90
23568;DHT22;11962;50.838;4.430;2022-08-21T02:24:03;16.80;99.90
23568;DHT22;11962;50.838;4.430;2022-08-21T02:26:29;16.80;99.90
23568;DHT22;11962;50.838;4.430;2022-08-21T02:28:55;16.80;99.90
23568;DHT22;11962;50.838;4.430;2022-08-21T02:31:20;16.70;99.90
23568;DHT22;11962;50.838;4.430;2022-08-21T02:34:04;16.70;99.90
23568;DHT22;11962;50.838;4.430;2022-08-21T02:36:30;16.60;99.90
23568;DHT22;11962;50.838;4.430;2022-08-21T02:38:55;16.60;99.90
23568;DHT22;11962;50.838;4.430;2022-08-21T02:41:21;16.70;99.90
23568;DHT22;11962;50.838;4.430;2022-08-21T02:43:47;16.60;99.90
23568;DHT22;11962;50.838;4.430;2022-08-21T02:46:13;16.60;99.90
23568;DHT22;11962;50.838;4.430;2022-08-21T02:51:48;16.50;99.90
23568;DHT22;11962;50.838;4.430;2022-08-21T02:54:14;16.50;99.90
23568;DHT22;11962;50.838;4.430;2022-08-21T02:56:39;16.60;99.90
23568;DHT22;11962;50.838;4.430;2022-08-21T02:59:05;16.50;99.90
23568;DHT22;11962;50.838;4.430;2022-08-21T03:01:30;16.50;99.90
23568;DHT22;11962;50.838;4.430;2022-08-21T03:06:57;16.50;99.90
23568;DHT22;11962;50.838;4.430;2022-08-21T03:09:22;16.50;99.90
23568;DHT22;11962;50.838;4.430;2022-08-21T03:11:49;16.40;99.90
23568;DHT22;11962;50.838;4.430;2022-08-21T03:14:15;16.40;99.90
23568;DHT22;11962;50.838;4.430;2022-08-21T03:16:41;16.40;99.90
23568;DHT22;11962;50.838;4.430;2022-08-21T03:19:13;16.40;99.90
23568;DHT22;11962;50.838;4.430;2022-08-21T03:21:39;16.40;99.90
23568;DHT22;11962;50.838;4.430;2022-08-21T03:24:04;16.40;99.90
23568;DHT22;11962;50.838;4.430;2022-08-21T03:26:30;16.30;99.90
23568;DHT22;11962;50.838;4.430;2022-08-21T03:28:56;16.30;99.90
23568;DHT22;11962;50.838;4.430;2022-08-21T03:31:23;16.30;99.90
23568;DHT22;11962;50.838;4.430;2022-08-21T03:33:49;16.30;99.90
23568;DHT22;11962;50.838;4.430;2022-08-21T03:36:14;16.30;99.90
23568;DHT22;11962;50.838;4.430;2022-08-21T03:38:40;16.20;99.90
23568;DHT22;11962;50.838;4.430;2022-08-21T03:41:06;16.20;99.90
23568;DHT22;11962;50.838;4.430;2022-08-21T03:43:32;16.20;99.90
23568;DHT22;11962;50.838;4.430;2022-08-21T03:45:58;16.20;99.90
23568;DHT22;11962;50.838;4.430;2022-08-21T03:48:23;16.10;99.90
23568;DHT22;11962;50.838;4.430;2022-08-21T03:50:51;16.10;99.90
23568;DHT22;11962;50.838;4.430;2022-08-21T03:53:17;16.10;99.90
23568;DHT22;11962;50.838;4.430;2022-08-21T03:55:46;16.10;99.90
23568;DHT22;11962;50.838;4.430;2022-08-21T03:58:13;16.10;99.90
23568;DHT22;11962;50.838;4.430;2022-08-21T04:00:39;16.10;99.90
23568;DHT22;11962;50.838;4.430;2022-08-21T04:03:04;16.00;99.90
23568;DHT22;11962;50.838;4.430;2022-08-21T04:05:31;16.00;99.90
23568;DHT22;11962;50.838;4.430;2022-08-21T04:07:59;16.00;99.90
23568;DHT22;11962;50.838;4.430;2022-08-21T04:10:25;16.00;99.90
23568;DHT22;11962;50.838;4.430;2022-08-21T04:12:52;16.10;99.90
23568;DHT22;11962;50.838;4.430;2022-08-21T04:15:17;16.00;99.90
23568;DHT22;11962;50.838;4.430;2022-08-21T04:17:43;16.00;99.90
23568;DHT22;11962;50.838;4.430;2022-08-21T04:20:08;16.00;99.90
23568;DHT22;11962;50.838;4.430;2022-08-21T04:22:34;16.00;99.90
23568;DHT22;11962;50.838;4.430;2022-08-21T04:24:59;15.90;99.90
23568;DHT22;11962;50.838;4.430;2022-08-21T04:27:25;15.90;99.90
23568;DHT22;11962;50.838;4.430;2022-08-21T04:29:50;15.90;99.90
23568;DHT22;11962;50.838;4.430;2022-08-21T04:32:23;15.80;99.90
23568;DHT22;11962;50.838;4.430;2022-08-21T04:34:48;15.80;99.90
23568;DHT22;11962;50.838;4.430;2022-08-21T04:37:14;15.90;99.90
23568;DHT22;11962;50.838;4.430;2022-08-21T04:39:41;15.80;99.90
23568;DHT22;11962;50.838;4.430;2022-08-21T04:42:06;15.90;99.90
23568;DHT22;11962;50.838;4.430;2022-08-21T04:44:32;15.80;99.90
23568;DHT22;11962;50.838;4.430;2022-08-21T04:46:58;15.90;99.90
23568;DHT22;11962;50.838;4.430;2022-08-21T04:49:26;15.90;99.90
23568;DHT22;11962;50.838;4.430;2022-08-21T04:51:52;15.90;99.90
23568;DHT22;11962;50.838;4.430;2022-08-21T04:54:18;15.90;99.90
23568;DHT22;11962;50.838;4.430;2022-08-21T04:56:47;16.00;99.90
23568;DHT22;11962;50.838;4.430;2022-08-21T04:59:14;16.00;99.90
23568;DHT22;11962;50.838;4.430;2022-08-21T05:01:41;16.00;99.90
23568;DHT22;11962;50.838;4.430;2022-08-21T05:04:08;16.00;99.90
23568;DHT22;11962;50.838;4.430;2022-08-21T05:06:35;16.00;99.90
23568;DHT22;11962;50.838;4.430;2022-08-21T05:09:02;16.00;99.90
23568;DHT22;11962;50.838;4.430;2022-08-21T05:11:29;16.00;99.90
23568;DHT22;11962;50.838;4.430;2022-08-21T05:13:55;16.00;99.90
23568;DHT22;11962;50.838;4.430;2022-08-21T05:16:21;16.00;99.90
23568;DHT22;11962;50.838;4.430;2022-08-21T05:18:46;16.10;99.90
23568;DHT22;11962;50.838;4.430;2022-08-21T05:21:12;16.10;99.90
23568;DHT22;11962;50.838;4.430;2022-08-21T05:23:37;16.10;99.90
23568;DHT22;11962;50.838;4.430;2022-08-21T05:26:03;16.20;99.90
23568;DHT22;11962;50.838;4.430;2022-08-21T05:28:29;16.20;99.90
23568;DHT22;11962;50.838;4.430;2022-08-21T05:30:55;16.20;99.90
23568;DHT22;11962;50.838;4.430;2022-08-21T05:33:21;16.20;99.90
23568;DHT22;11962;50.838;4.430;2022-08-21T05:36:05;16.30;99.90
23568;DHT22;11962;50.838;4.430;2022-08-21T05:38:30;16.30;99.90
23568;DHT22;11962;50.838;4.430;2022-08-21T05:40:56;16.30;99.90
23568;DHT22;11962;50.838;4.430;2022-08-21T05:43:21;16.30;99.90
23568;DHT22;11962;50.838;4.430;2022-08-21T05:45:47;16.30;99.90
23568;DHT22;11962;50.838;4.430;2022-08-21T05:48:14;16.40;99.90
23568;DHT22;11962;50.838;4.430;2022-08-21T05:50:41;16.40;99.90
23568;DHT22;11962;50.838;4.430;2022-08-21T05:53:06;16.50;99.90
23568;DHT22;11962;50.838;4.430;2022-08-21T05:55:32;16.60;99.90
23568;DHT22;11962;50.838;4.430;2022-08-21T05:57:58;16.60;99.90
23568;DHT22;11962;50.838;4.430;2022-08-21T06:00:24;16.70;99.90
23568;DHT22;11962;50.838;4.430;2022-08-21T06:02:50;16.70;99.90
23568;DHT22;11962;50.838;4.430;2022-08-21T06:05:34;16.80;99.90
23568;DHT22;11962;50.838;4.430;2022-08-21T06:07:59;16.80;99.90
23568;DHT22;11962;50.838;4.430;2022-08-21T06:10:25;16.90;99.90
23568;DHT22;11962;50.838;4.430;2022-08-21T06:12:53;17.00;99.90
23568;DHT22;11962;50.838;4.430;2022-08-21T06:15:20;17.10;99.90
23568;DHT22;11962;50.838;4.430;2022-08-21T06:17:45;17.20;99.90
23568;DHT22;11962;50.838;4.430;2022-08-21T06:20:11;17.30;99.90
23568;DHT22;11962;50.838;4.430;2022-08-21T06:25:30;17.50;99.90
23568;DHT22;11962;50.838;4.430;2022-08-21T06:28:06;17.60;99.90
23568;DHT22;11962;50.838;4.430;2022-08-21T06:30:32;17.80;99.90
23568;DHT22;11962;50.838;4.430;2022-08-21T06:32:57;18.00;99.90
23568;DHT22;11962;50.838;4.430;2022-08-21T06:35:23;18.20;99.90
23568;DHT22;11962;50.838;4.430;2022-08-21T06:37:50;18.40;99.90
23568;DHT22;11962;50.838;4.430;2022-08-21T06:40:15;18.80;99.90
23568;DHT22;11962;50.838;4.430;2022-08-21T06:42:41;19.40;99.90
23568;DHT22;11962;50.838;4.430;2022-08-21T06:45:06;21.00;99.90
23568;DHT22;11962;50.838;4.430;2022-08-21T06:47:32;23.30;99.90
23568;DHT22;11962;50.838;4.430;2022-08-21T06:49:58;25.60;98.30
23568;DHT22;11962;50.838;4.430;2022-08-21T06:52:23;27.70;90.00
23568;DHT22;11962;50.838;4.430;2022-08-21T06:54:49;28.90;81.80
23568;DHT22;11962;50.838;4.430;2022-08-21T06:57:15;29.90;74.00
23568;DHT22;11962;50.838;4.430;2022-08-21T06:59:40;31.00;68.80
23568;DHT22;11962;50.838;4.430;2022-08-21T07:02:06;32.50;62.00
23568;DHT22;11962;50.838;4.430;2022-08-21T07:04:31;34.10;57.80
23568;DHT22;11962;50.838;4.430;2022-08-21T07:06:57;35.50;55.00
23568;DHT22;11962;50.838;4.430;2022-08-21T07:09:23;36.80;51.60
23568;DHT22;11962;50.838;4.430;2022-08-21T07:11:49;37.70;48.40
23568;DHT22;11962;50.838;4.430;2022-08-21T07:14:15;38.30;46.10
23568;DHT22;11962;50.838;4.430;2022-08-21T07:16:41;39.00;45.50
23568;DHT22;11962;50.838;4.430;2022-08-21T07:19:06;39.60;43.80
23568;DHT22;11962;50.838;4.430;2022-08-21T07:21:32;40.00;42.90
23568;DHT22;11962;50.838;4.430;2022-08-21T07:23:57;40.40;42.20
23568;DHT22;11962;50.838;4.430;2022-08-21T07:26:23;41.00;41.60
23568;DHT22;11962;50.838;4.430;2022-08-21T07:28:49;41.60;40.70
23568;DHT22;11962;50.838;4.430;2022-08-21T07:31:15;42.10;39.90
23568;DHT22;11962;50.838;4.430;2022-08-21T07:33:42;42.00;39.80
23568;DHT22;11962;50.838;4.430;2022-08-21T07:36:07;40.90;39.80
23568;DHT22;11962;50.838;4.430;2022-08-21T07:38:33;39.30;41.60
23568;DHT22;11962;50.838;4.430;2022-08-21T07:40:59;38.00;44.10
23568;DHT22;11962;50.838;4.430;2022-08-21T07:43:25;37.80;44.60
23568;DHT22;11962;50.838;4.430;2022-08-21T07:45:51;39.10;42.90
23568;DHT22;11962;50.838;4.430;2022-08-21T07:48:16;40.60;41.40
23568;DHT22;11962;50.838;4.430;2022-08-21T07:50:42;41.90;40.00
23568;DHT22;11962;50.838;4.430;2022-08-21T07:53:11;42.50;38.60
23568;DHT22;11962;50.838;4.430;2022-08-21T07:55:36;42.80;38.00
23568;DHT22;11962;50.838;4.430;2022-08-21T07:58:02;43.20;37.70
23568;DHT22;11962;50.838;4.430;2022-08-21T08:00:27;43.30;37.30
23568;DHT22;11962;50.838;4.430;2022-08-21T08:02:54;43.20;37.60
23568;DHT22;11962;50.838;4.430;2022-08-21T08:05:20;42.50;37.50
23568;DHT22;11962;50.838;4.430;2022-08-21T08:07:46;41.80;38.40
23568;DHT22;11962;50.838;4.430;2022-08-21T08:10:12;41.10;38.80
23568;DHT22;11962;50.838;4.430;2022-08-21T08:12:39;40.60;39.50
23568;DHT22;11962;50.838;4.430;2022-08-21T08:15:06;39.60;40.10
23568;DHT22;11962;50.838;4.430;2022-08-21T08:17:32;38.80;41.10
23568;DHT22;11962;50.838;4.430;2022-08-21T08:19:57;38.40;41.60
23568;DHT22;11962;50.838;4.430;2022-08-21T08:22:23;38.20;42.70
23568;DHT22;11962;50.838;4.430;2022-08-21T08:24:52;37.80;42.10
23568;DHT22;11962;50.838;4.430;2022-08-21T08:27:18;37.40;42.90
23568;DHT22;11962;50.838;4.430;2022-08-21T08:29:44;37.20;43.30
23568;DHT22;11962;50.838;4.430;2022-08-21T08:32:09;36.80;43.80
23568;DHT22;11962;50.838;4.430;2022-08-21T08:34:36;36.20;44.30
23568;DHT22;11962;50.838;4.430;2022-08-21T08:37:06;36.10;44.80
23568;DHT22;11962;50.838;4.430;2022-08-21T08:39:32;36.90;44.20
23568;DHT22;11962;50.838;4.430;2022-08-21T08:44:33;39.70;41.20
23568;DHT22;11962;50.838;4.430;2022-08-21T08:46:58;41.20;39.10
23568;DHT22;11962;50.838;4.430;2022-08-21T08:52:03;42.80;37.20
23568;DHT22;11962;50.838;4.430;2022-08-21T08:54:35;43.10;36.50
23568;DHT22;11962;50.838;4.430;2022-08-21T08:57:09;43.30;36.10
23568;DHT22;11962;50.838;4.430;2022-08-21T08:59:42;43.40;36.10
23568;DHT22;11962;50.838;4.430;2022-08-21T09:02:09;44.10;35.40
23568;DHT22;11962;50.838;4.430;2022-08-21T09:04:36;45.10;34.80
23568;DHT22;11962;50.838;4.430;2022-08-21T09:09:48;45.60;33.70
23568;DHT22;11962;50.838;4.430;2022-08-21T09:12:18;46.10;33.40
23568;DHT22;11962;50.838;4.430;2022-08-21T09:20:07;47.60;31.50
23568;DHT22;11962;50.838;4.430;2022-08-21T09:25:25;48.20;30.60
23568;DHT22;11962;50.838;4.430;2022-08-21T09:27:51;48.20;30.00
23568;DHT22;11962;50.838;4.430;2022-08-21T09:30:17;48.50;30.20
23568;DHT22;11962;50.838;4.430;2022-08-21T09:32:44;49.00;29.90
23568;DHT22;11962;50.838;4.430;2022-08-21T09:35:13;48.80;29.90
23568;DHT22;11962;50.838;4.430;2022-08-21T09:38:11;48.80;29.60
23568;DHT22;11962;50.838;4.430;2022-08-21T09:45:26;48.80;29.70
23568;DHT22;11962;50.838;4.430;2022-08-21T09:47:51;49.40;29.40
23568;DHT22;11962;50.838;4.430;2022-08-21T09:50:19;49.10;29.30
23568;DHT22;11962;50.838;4.430;2022-08-21T09:52:49;47.70;30.00
23568;DHT22;11962;50.838;4.430;2022-08-21T09:55:16;46.30;31.10
23568;DHT22;11962;50.838;4.430;2022-08-21T09:58:03;44.40;32.50
23568;DHT22;11962;50.838;4.430;2022-08-21T10:00:31;42.40;34.10
23568;DHT22;11962;50.838;4.430;2022-08-21T10:03:17;41.10;35.70
23568;DHT22;11962;50.838;4.430;2022-08-21T10:05:55;40.50;36.60
23568;DHT22;11962;50.838;4.430;2022-08-21T10:08:22;39.70;37.30
23568;DHT22;11962;50.838;4.430;2022-08-21T10:10:53;38.90;37.90
23568;DHT22;11962;50.838;4.430;2022-08-21T10:13:21;37.80;39.00
23568;DHT22;11962;50.838;4.430;2022-08-21T10:15:53;37.40;40.20
23568;DHT22;11962;50.838;4.430;2022-08-21T10:21:10;36.70;40.90
23568;DHT22;11962;50.838;4.430;2022-08-21T10:26:43;39.60;38.70
23568;DHT22;11962;50.838;4.430;2022-08-21T10:31:42;44.00;34.10
23568;DHT22;11962;50.838;4.430;2022-08-21T10:34:15;44.60;33.40
23568;DHT22;11962;50.838;4.430;2022-08-21T10:37:04;44.30;33.00
23568;DHT22;11962;50.838;4.430;2022-08-21T10:39:36;43.00;34.40
23568;DHT22;11962;50.838;4.430;2022-08-21T10:42:20;42.30;35.20
23568;DHT22;11962;50.838;4.430;2022-08-21T10:47:27;40.80;36.00
23568;DHT22;11962;50.838;4.430;2022-08-21T10:52:23;40.20;37.20
23568;DHT22;11962;50.838;4.430;2022-08-21T10:54:59;40.50;37.00
23568;DHT22;11962;50.838;4.430;2022-08-21T11:00:06;40.40;36.90
23568;DHT22;11962;50.838;4.430;2022-08-21T11:02:44;40.40;37.30
23568;DHT22;11962;50.838;4.430;2022-08-21T11:05:12;40.80;37.00
23568;DHT22;11962;50.838;4.430;2022-08-21T11:07:43;41.00;36.30
23568;DHT22;11962;50.838;4.430;2022-08-21T11:10:24;40.80;36.70
23568;DHT22;11962;50.838;4.430;2022-08-21T11:12:54;40.40;36.90
23568;DHT22;11962;50.838;4.430;2022-08-21T11:15:30;40.30;37.30
23568;DHT22;11962;50.838;4.430;2022-08-21T11:18:00;40.20;37.10
23568;DHT22;11962;50.838;4.430;2022-08-21T11:20:28;39.50;38.00
23568;DHT22;11962;50.838;4.430;2022-08-21T11:25:41;38.80;38.70
23568;DHT22;11962;50.838;4.430;2022-08-21T11:28:10;37.60;39.80
23568;DHT22;11962;50.838;4.430;2022-08-21T11:30:52;36.70;41.20
23568;DHT22;11962;50.838;4.430;2022-08-21T11:35:49;35.10;43.10
23568;DHT22;11962;50.838;4.430;2022-08-21T11:38:38;34.60;44.40
23568;DHT22;11962;50.838;4.430;2022-08-21T11:43:42;33.80;45.40
23568;DHT22;11962;50.838;4.430;2022-08-21T12:00:13;33.30;46.20
23568;DHT22;11962;50.838;4.430;2022-08-21T12:02:43;33.40;46.10
23568;DHT22;11962;50.838;4.430;2022-08-21T12:05:11;33.50;46.20
23568;DHT22;11962;50.838;4.430;2022-08-21T12:07:38;33.60;46.20
23568;DHT22;11962;50.838;4.430;2022-08-21T12:10:12;33.50;46.20
23568;DHT22;11962;50.838;4.430;2022-08-21T12:12:38;33.30;46.60
23568;DHT22;11962;50.838;4.430;2022-08-21T12:17:57;32.90;47.00
23568;DHT22;11962;50.838;4.430;2022-08-21T12:23:03;32.40;47.70
23568;DHT22;11962;50.838;4.430;2022-08-21T12:28:28;31.90;47.60
23568;DHT22;11962;50.838;4.430;2022-08-21T12:30:55;31.60;48.30
23568;DHT22;11962;50.838;4.430;2022-08-21T12:35:50;31.20;49.10
23568;DHT22;11962;50.838;4.430;2022-08-21T12:38:27;31.00;48.80
23568;DHT22;11962;50.838;4.430;2022-08-21T12:44:20;31.00;49.20
23568;DHT22;11962;50.838;4.430;2022-08-21T12:46:46;30.80;49.30
23568;DHT22;11962;50.838;4.430;2022-08-21T12:49:14;30.80;49.90
23568;DHT22;11962;50.838;4.430;2022-08-21T12:54:22;30.90;49.90
23568;DHT22;11962;50.838;4.430;2022-08-21T12:56:55;30.60;49.70
23568;DHT22;11962;50.838;4.430;2022-08-21T12:59:20;30.50;50.20
23568;DHT22;11962;50.838;4.430;2022-08-21T13:01:48;30.30;50.60
23568;DHT22;11962;50.838;4.430;2022-08-21T13:04:19;30.20;50.90
23568;DHT22;11962;50.838;4.430;2022-08-21T13:06:47;30.20;50.60
23568;DHT22;11962;50.838;4.430;2022-08-21T13:09:14;30.30;50.40
23568;DHT22;11962;50.838;4.430;2022-08-21T13:11:41;30.40;50.10
23568;DHT22;11962;50.838;4.430;2022-08-21T13:14:13;30.50;50.10
23568;DHT22;11962;50.838;4.430;2022-08-21T13:16:39;30.60;50.00
23568;DHT22;11962;50.838;4.430;2022-08-21T13:19:06;30.80;49.10
23568;DHT22;11962;50.838;4.430;2022-08-21T13:22:13;30.90;48.00
23568;DHT22;11962;50.838;4.430;2022-08-21T13:24:39;31.00;48.50
23568;DHT22;11962;50.838;4.430;2022-08-21T13:27:26;31.00;48.60
23568;DHT22;11962;50.838;4.430;2022-08-21T13:30:17;30.90;49.00
23568;DHT22;11962;50.838;4.430;2022-08-21T13:32:46;30.90;49.00
23568;DHT22;11962;50.838;4.430;2022-08-21T13:37:43;30.60;49.40
23568;DHT22;11962;50.838;4.430;2022-08-21T13:40:17;30.40;49.60
23568;DHT22;11962;50.838;4.430;2022-08-21T13:42:45;30.40;50.10
23568;DHT22;11962;50.838;4.430;2022-08-21T13:46:10;30.20;50.50
23568;DHT22;11962;50.838;4.430;2022-08-21T13:48:11;30.00;51.20
23568;DHT22;11962;50.838;4.430;2022-08-21T13:50:42;29.80;51.50
23568;DHT22;11962;50.838;4.430;2022-08-21T13:53:26;29.80;52.00
23568;DHT22;11962;50.838;4.430;2022-08-21T13:55:53;29.80;51.80
23568;DHT22;11962;50.838;4.430;2022-08-21T13:58:33;29.80;51.80
23568;DHT22;11962;50.838;4.430;2022-08-21T14:01:15;29.70;51.60
23568;DHT22;11962;50.838;4.430;2022-08-21T14:03:45;29.60;51.80
23568;DHT22;11962;50.838;4.430;2022-08-21T14:06:16;29.70;51.80
23568;DHT22;11962;50.838;4.430;2022-08-21T14:08:51;29.70;51.80
23568;DHT22;11962;50.838;4.430;2022-08-21T14:11:18;29.60;51.40
23568;DHT22;11962;50.838;4.430;2022-08-21T14:13:49;29.70;51.50
23568;DHT22;11962;50.838;4.430;2022-08-21T14:16:21;29.90;51.50
23568;DHT22;11962;50.838;4.430;2022-08-21T14:21:39;29.90;51.80
23568;DHT22;11962;50.838;4.430;2022-08-21T14:24:11;29.80;51.90
23568;DHT22;11962;50.838;4.430;2022-08-21T14:27:05;29.70;52.30
23568;DHT22;11962;50.838;4.430;2022-08-21T14:29:37;29.60;52.40
23568;DHT22;11962;50.838;4.430;2022-08-21T14:32:30;29.40;52.90
23568;DHT22;11962;50.838;4.430;2022-08-21T14:35:01;29.20;53.50
23568;DHT22;11962;50.838;4.430;2022-08-21T14:37:26;29.10;53.80
23568;DHT22;11962;50.838;4.430;2022-08-21T14:39:52;29.10;54.10
23568;DHT22;11962;50.838;4.430;2022-08-21T14:42:18;29.10;53.90
23568;DHT22;11962;50.838;4.430;2022-08-21T14:44:44;29.10;53.90
23568;DHT22;11962;50.838;4.430;2022-08-21T14:47:10;29.10;53.60
23568;DHT22;11962;50.838;4.430;2022-08-21T14:49:36;29.20;53.70
23568;DHT22;11962;50.838;4.430;2022-08-21T14:52:02;29.40;53.40
23568;DHT22;11962;50.838;4.430;2022-08-21T14:54:29;29.50;53.20
23568;DHT22;11962;50.838;4.430;2022-08-21T14:57:01;29.60;53.00
23568;DHT22;11962;50.838;4.430;2022-08-21T14:59:27;29.60;53.00
23568;DHT22;11962;50.838;4.430;2022-08-21T15:01:53;29.60;53.30
23568;DHT22;11962;50.838;4.430;2022-08-21T15:04:22;29.70;53.40
23568;DHT22;11962;50.838;4.430;2022-08-21T15:06:47;29.70;53.20
23568;DHT22;11962;50.838;4.430;2022-08-21T15:09:23;29.60;53.20
23568;DHT22;11962;50.838;4.430;2022-08-21T15:11:51;29.60;54.00
23568;DHT22;11962;50.838;4.430;2022-08-21T15:14:21;29.70;53.80
23568;DHT22;11962;50.838;4.430;2022-08-21T15:16:52;29.80;53.70
23568;DHT22;11962;50.838;4.430;2022-08-21T15:19:18;29.90;53.30
23568;DHT22;11962;50.838;4.430;2022-08-21T15:21:44;29.90;53.20
23568;DHT22;11962;50.838;4.430;2022-08-21T15:24:10;29.90;53.30
23568;DHT22;11962;50.838;4.430;2022-08-21T15:26:36;29.70;53.20
23568;DHT22;11962;50.838;4.430;2022-08-21T15:29:02;29.60;53.30
23568;DHT22;11962;50.838;4.430;2022-08-21T15:31:28;29.50;53.20
23568;DHT22;11962;50.838;4.430;2022-08-21T15:33:54;29.50;53.50
23568;DHT22;11962;50.838;4.430;2022-08-21T15:36:20;29.40;53.70
23568;DHT22;11962;50.838;4.430;2022-08-21T15:38:46;29.30;53.80
23568;DHT22;11962;50.838;4.430;2022-08-21T15:41:12;29.10;54.10
23568;DHT22;11962;50.838;4.430;2022-08-21T15:43:50;29.00;54.40
23568;DHT22;11962;50.838;4.430;2022-08-21T15:46:18;28.90;54.70
23568;DHT22;11962;50.838;4.430;2022-08-21T15:48:44;29.00;54.80
23568;DHT22;11962;50.838;4.430;2022-08-21T15:51:12;29.00;54.80
23568;DHT22;11962;50.838;4.430;2022-08-21T15:53:38;29.00;55.10
23568;DHT22;11962;50.838;4.430;2022-08-21T15:56:08;28.90;54.80
23568;DHT22;11962;50.838;4.430;2022-08-21T15:58:36;28.80;55.00
23568;DHT22;11962;50.838;4.430;2022-08-21T16:01:02;28.80;55.00
23568;DHT22;11962;50.838;4.430;2022-08-21T16:03:28;28.60;54.90
23568;DHT22;11962;50.838;4.430;2022-08-21T16:05:54;28.60;55.00
23568;DHT22;11962;50.838;4.430;2022-08-21T16:08:22;28.50;54.80
23568;DHT22;11962;50.838;4.430;2022-08-21T16:10:48;28.40;55.20
23568;DHT22;11962;50.838;4.430;2022-08-21T16:13:22;28.40;55.40
23568;DHT22;11962;50.838;4.430;2022-08-21T16:15:49;28.40;55.40
23568;DHT22;11962;50.838;4.430;2022-08-21T16:18:15;28.40;55.70
23568;DHT22;11962;50.838;4.430;2022-08-21T16:20:42;28.30;55.90
23568;DHT22;11962;50.838;4.430;2022-08-21T16:23:07;28.20;55.60
23568;DHT22;11962;50.838;4.430;2022-08-21T16:25:36;28.20;55.90
23568;DHT22;11962;50.838;4.430;2022-08-21T16:28:02;28.20;55.80
23568;DHT22;11962;50.838;4.430;2022-08-21T16:30:29;28.10;56.20
23568;DHT22;11962;50.838;4.430;2022-08-21T16:32:55;28.00;56.20
23568;DHT22;11962;50.838;4.430;2022-08-21T16:35:21;27.90;56.20
23568;DHT22;11962;50.838;4.430;2022-08-21T16:37:47;27.90;56.20
23568;DHT22;11962;50.838;4.430;2022-08-21T16:40:13;27.80;56.30
23568;DHT22;11962;50.838;4.430;2022-08-21T16:42:40;27.80;56.40
23568;DHT22;11962;50.838;4.430;2022-08-21T16:45:15;27.70;56.60
23568;DHT22;11962;50.838;4.430;2022-08-21T16:47:43;27.60;56.90
23568;DHT22;11962;50.838;4.430;2022-08-21T16:50:16;27.50;57.20
23568;DHT22;11962;50.838;4.430;2022-08-21T16:52:46;27.50;57.80
23568;DHT22;11962;50.838;4.430;2022-08-21T16:55:12;27.30;58.00
23568;DHT22;11962;50.838;4.430;2022-08-21T16:57:40;27.20;57.80
23568;DHT22;11962;50.838;4.430;2022-08-21T17:00:07;27.10;57.90
23568;DHT22;11962;50.838;4.430;2022-08-21T17:02:39;27.00;58.20
23568;DHT22;11962;50.838;4.430;2022-08-21T17:05:05;26.90;58.40
23568;DHT22;11962;50.838;4.430;2022-08-21T17:07:31;26.90;58.70
23568;DHT22;11962;50.838;4.430;2022-08-21T17:09:57;26.90;59.20
23568;DHT22;11962;50.838;4.430;2022-08-21T17:12:23;26.90;59.60
23568;DHT22;11962;50.838;4.430;2022-08-21T17:15:05;26.80;60.10
23568;DHT22;11962;50.838;4.430;2022-08-21T17:17:46;26.80;60.60
23568;DHT22;11962;50.838;4.430;2022-08-21T17:20:12;26.80;60.60